Ringsted, Iowa
Current Conditions -  °F | °C
As of 5:52 PM on Friday 19 Dec 2014 (Local Time) from KEST Reporting Station
Haze Haze  
Wind Chill: 22°   Ceiling: 1700
Heat Index: 31°   Visibility: 4mi
Dew Point: 28°   Wind: 12mph
Humidity: 89%   Direction: 170°S
Pressure: 30.14"   Gusts: NA
Location:  43.29°N, 94.51°W
Report Text: KEST 192352Z AUTO 17010KT 4SM BR FEW010 OVC017 M01/M02 A3014 RMK AO2 SLP222 T10061022 10000 21011 50001
Loading
Personal Weather Stations






























Interactive Weather Map New forecast layout! Learn more

10-Day Weather Forecast

Advertisements
Track Severe Weather on mobile